createdAt,value
2022-10-23T00:04:12.226Z,95507.56
2022-10-23T00:12:35.244Z,95523.05
2022-10-23T00:20:58.399Z,95534.55
2022-10-23T00:29:21.272Z,95532.56
2022-10-23T00:37:44.416Z,95538.31
2022-10-23T00:46:08.263Z,95548.16
2022-10-23T00:54:43.212Z,95546.98
2022-10-23T01:03:06.282Z,95556.13
2022-10-23T01:11:45.981Z,95560.27
2022-10-23T01:20:31.961Z,95565.10
2022-10-23T01:29:21.341Z,95568.17
2022-10-23T01:37:53.782Z,95561.23
2022-10-23T01:46:18.526Z,95553.34
2022-10-23T01:54:45.188Z,95551.66
2022-10-23T02:03:09.607Z,95547.34
2022-10-23T02:11:40.101Z,95528.50
2022-10-23T02:20:18.342Z,95514.82
2022-10-23T02:28:49.756Z,95513.60
2022-10-23T02:37:13.506Z,95521.49
2022-10-23T02:45:55.386Z,95529.55
2022-10-23T02:54:23.139Z,95533.60
2022-10-23T03:02:59.363Z,95538.52
2022-10-23T03:11:25.080Z,95550.88
2022-10-23T03:19:47.922Z,95559.98
2022-10-23T03:28:10.803Z,95569.08
2022-10-23T03:36:33.850Z,95587.96
2022-10-23T03:44:56.837Z,95597.68
2022-10-23T03:53:20.667Z,95610.31
2022-10-23T04:01:43.906Z,95601.00
2022-10-23T04:10:07.372Z,95548.80
2022-10-23T04:18:30.422Z,95506.16
2022-10-23T04:26:53.839Z,95510.95
2022-10-23T04:35:17.524Z,95520.86
2022-10-23T04:43:40.455Z,95527.52
2022-10-23T04:52:04.100Z,95543.92
2022-10-23T05:00:47.176Z,95554.45
2022-10-23T05:09:16.733Z,95548.02
2022-10-23T05:17:58.064Z,95545.49
2022-10-23T05:26:22.888Z,95536.88
2022-10-23T05:34:48.223Z,95533.60
2022-10-23T05:43:11.231Z,95524.46
2022-10-23T05:51:46.155Z,95481.70
2022-10-23T06:00:38.590Z,95487.95
2022-10-23T06:09:15.235Z,95530.54
2022-10-23T06:17:38.922Z,95542.31
2022-10-23T06:26:03.402Z,95563.39
2022-10-23T06:34:32.187Z,95573.26
2022-10-23T06:42:58.166Z,95582.82
2022-10-23T06:51:44.293Z,95568.20
2022-10-23T07:00:10.346Z,95559.27
2022-10-23T07:08:39.727Z,95547.17
2022-10-23T07:17:34.818Z,95571.91
2022-10-23T07:26:15.761Z,95621.05
2022-10-23T07:34:39.412Z,95658.22
2022-10-23T07:43:26.374Z,95741.69
2022-10-23T07:51:51.628Z,95824.28
2022-10-23T08:00:15.597Z,95893.80
2022-10-23T08:08:47.164Z,95956.98
2022-10-23T08:17:10.255Z,96007.77
2022-10-23T08:26:03.343Z,96091.18
2022-10-23T08:34:28.550Z,96185.76
2022-10-23T08:43:01.787Z,96264.32
2022-10-23T08:51:37.229Z,96325.95
2022-10-23T09:00:09.252Z,96371.43
2022-10-23T09:09:00.243Z,96378.71
2022-10-23T09:17:30.540Z,96369.65
2022-10-23T09:25:57.102Z,96387.98
2022-10-23T09:34:28.979Z,96430.63
2022-10-23T09:43:13.675Z,96526.61
2022-10-23T09:51:42.113Z,96621.06
2022-10-23T10:00:16.023Z,96700.93
2022-10-23T10:08:52.580Z,96808.98
2022-10-23T10:17:45.573Z,96909.80
2022-10-23T10:26:16.269Z,96922.66
2022-10-23T10:34:56.167Z,96872.27
2022-10-23T10:43:31.247Z,96801.91
2022-10-23T10:52:04.664Z,96814.71
2022-10-23T11:00:29.976Z,96921.27
2022-10-23T11:08:57.894Z,97014.70
2022-10-23T11:17:43.960Z,97012.48
2022-10-23T11:26:29.665Z,96975.34
2022-10-23T11:35:07.080Z,96982.02
2022-10-23T11:43:52.454Z,97028.51
2022-10-23T11:52:25.501Z,97082.44
2022-10-23T12:01:00.398Z,97118.72
2022-10-23T12:09:29.524Z,97078.52
2022-10-23T12:17:56.303Z,97073.27
2022-10-23T12:26:50.829Z,97052.08
2022-10-23T12:36:04.052Z,97115.55
2022-10-23T12:44:30.883Z,97116.32
2022-10-23T12:53:08.296Z,97088.12
2022-10-23T13:01:34.594Z,97094.57
2022-10-23T13:09:59.069Z,97077.31
2022-10-23T13:18:25.549Z,97055.69
2022-10-23T13:26:49.976Z,97042.99
2022-10-23T13:35:23.540Z,97021.65
2022-10-23T13:43:48.567Z,97018.32
2022-10-23T13:52:14.435Z,97001.91
2022-10-23T14:00:38.833Z,96986.91
2022-10-23T14:09:01.819Z,96979.36
2022-10-23T14:17:24.727Z,96937.97
2022-10-23T14:25:47.618Z,96919.95
2022-10-23T14:34:11.947Z,96898.98
2022-10-23T14:42:35.323Z,96859.05
2022-10-23T14:50:58.145Z,96766.05
2022-10-23T14:59:21.010Z,96667.46
2022-10-23T15:07:43.876Z,96578.51
2022-10-23T15:16:10.954Z,96471.35
2022-10-23T15:24:34.478Z,96376.80
2022-10-23T15:32:57.400Z,96318.12
2022-10-23T15:41:41.232Z,96249.17
2022-10-23T15:50:04.954Z,96158.27
2022-10-23T15:58:29.682Z,96058.84
2022-10-23T16:06:53.771Z,95944.52
2022-10-23T16:15:17.313Z,95820.64
2022-10-23T16:23:40.291Z,95733.38
2022-10-23T16:32:03.380Z,95627.03
2022-10-23T16:40:26.311Z,95574.31
2022-10-23T16:49:09.228Z,95518.35
2022-10-23T16:57:32.048Z,95445.88
2022-10-23T17:06:01.618Z,95324.31
2022-10-23T17:14:29.315Z,95234.55
2022-10-23T17:22:52.182Z,95173.09
2022-10-23T17:31:25.388Z,95063.84
2022-10-23T17:39:48.206Z,94957.62
2022-10-23T17:48:14.536Z,94865.56
2022-10-23T17:56:38.447Z,94799.91
2022-10-23T18:05:01.296Z,94794.56
2022-10-23T18:13:24.123Z,94778.29
2022-10-23T18:21:48.484Z,94674.08
2022-10-23T18:30:12.286Z,94610.95
2022-10-23T18:38:37.233Z,94558.46
2022-10-23T18:47:00.144Z,94500.64
2022-10-23T18:55:22.991Z,94451.64
2022-10-23T19:03:46.019Z,94399.45
2022-10-23T19:12:10.274Z,94358.34
2022-10-23T19:20:34.208Z,94297.44
2022-10-23T19:28:58.230Z,94236.48
2022-10-23T19:37:21.056Z,94205.00
2022-10-23T19:45:43.995Z,94164.16
2022-10-23T19:54:06.930Z,94101.46
2022-10-23T20:02:30.327Z,94049.04
2022-10-23T20:10:54.753Z,93992.87
2022-10-23T20:27:41.075Z,93852.73
2022-10-23T20:36:07.295Z,93773.39
2022-10-23T20:44:30.891Z,93722.15
2022-10-23T20:53:19.981Z,93684.61
2022-10-23T21:01:46.265Z,93613.63
2022-10-23T21:10:09.507Z,93527.29
2022-10-23T21:18:45.559Z,93472.91
2022-10-23T21:27:09.123Z,93436.93
2022-10-23T21:35:32.218Z,93415.34
2022-10-23T21:43:57.771Z,93418.03
2022-10-23T21:52:20.560Z,93417.39
2022-10-23T22:00:43.484Z,93413.96
2022-10-23T22:09:07.789Z,93388.54
2022-10-23T22:17:30.633Z,93349.35
2022-10-23T22:25:53.410Z,93321.70
2022-10-23T22:34:28.718Z,93330.67
2022-10-23T22:43:04.593Z,93306.02
2022-10-23T22:51:29.803Z,93291.70
2022-10-23T22:59:52.752Z,93295.01
2022-10-23T23:08:15.656Z,93268.13
2022-10-23T23:16:38.588Z,93262.04
2022-10-23T23:25:01.467Z,93258.44
2022-10-23T23:33:24.445Z,93220.58
2022-10-23T23:41:47.289Z,93209.09
2022-10-23T23:50:12.100Z,93213.31
2022-10-23T23:58:35.090Z,93190.48
